Terminal Aerodrome Forecast
Issued by NWS

Home | Current Version | Previous Version | Text Only | Print | Product List | Glossary On
Versions: 1 2 3 4 5 6 7 8 9 10 11 12
152
FTUS43 KAPX 240524
TAFTVC
TAF
KTVC 240524Z 2406/2506 19003KT P6SM FEW250 WS010/23030KT
     FM241300 22008KT P6SM FEW250
     FM241700 22010G18KT P6SM SCT070 BKN100
     FM242300 23006KT P6SM SCT100
     FM250400 VRB03KT P6SM VCSH BKN040 BKN120=

USA.gov is the U.S. government's official web portal to all federal, state and local government web resources and services.